sensor_id;sensor_type;location;lat;lon;timestamp;pressure;altitude;pressure_sealevel;temperature;humidity
12624;BME280;6377;42.836;23.998;2023-02-17T00:00:59;96573.28;;;0.45;100.00
12624;BME280;6377;42.836;23.998;2023-02-17T00:03:28;96368.50;;;-0.91;100.00
12624;BME280;6377;42.836;23.998;2023-02-17T00:05:56;96563.91;;;0.43;100.00
12624;BME280;6377;42.836;23.998;2023-02-17T00:08:23;96555.25;;;0.42;100.00
12624;BME280;6377;42.836;23.998;2023-02-17T00:10:55;96552.47;;;0.45;100.00
12624;BME280;6377;42.836;23.998;2023-02-17T00:13:23;96590.47;;;0.48;100.00
12624;BME280;6377;42.836;23.998;2023-02-17T00:15:51;96515.06;;;0.20;100.00
12624;BME280;6377;42.836;23.998;2023-02-17T00:18:19;96472.53;;;-0.08;100.00
12624;BME280;6377;42.836;23.998;2023-02-17T00:20:48;96537.41;;;0.36;100.00
12624;BME280;6377;42.836;23.998;2023-02-17T00:23:15;96496.88;;;0.06;100.00
12624;BME280;6377;42.836;23.998;2023-02-17T00:25:42;96529.28;;;0.14;100.00
12624;BME280;6377;42.836;23.998;2023-02-17T00:28:10;96560.66;;;0.39;100.00
12624;BME280;6377;42.836;23.998;2023-02-17T00:30:38;96467.44;;;-0.09;100.00
12624;BME280;6377;42.836;23.998;2023-02-17T00:33:05;96402.31;;;-0.63;100.00
12624;BME280;6377;42.836;23.998;2023-02-17T00:35:39;96444.06;;;-0.37;100.00
12624;BME280;6377;42.836;23.998;2023-02-17T00:38:10;96548.94;;;0.18;100.00
12624;BME280;6377;42.836;23.998;2023-02-17T00:40:37;96545.63;;;0.16;100.00
12624;BME280;6377;42.836;23.998;2023-02-17T00:43:06;96499.38;;;-0.07;100.00
12624;BME280;6377;42.836;23.998;2023-02-17T00:45:34;96536.34;;;0.26;100.00
12624;BME280;6377;42.836;23.998;2023-02-17T00:48:02;96462.22;;;-0.23;100.00
12624;BME280;6377;42.836;23.998;2023-02-17T00:50:29;96469.19;;;-0.38;100.00
12624;BME280;6377;42.836;23.998;2023-02-17T00:52:57;96448.03;;;-0.32;100.00
12624;BME280;6377;42.836;23.998;2023-02-17T00:55:26;96430.31;;;-0.39;100.00
12624;BME280;6377;42.836;23.998;2023-02-17T00:57:58;96466.31;;;-0.19;100.00
12624;BME280;6377;42.836;23.998;2023-02-17T01:00:26;96350.81;;;-0.98;100.00
12624;BME280;6377;42.836;23.998;2023-02-17T01:02:54;96457.41;;;-0.29;100.00
12624;BME280;6377;42.836;23.998;2023-02-17T01:05:21;96466.03;;;-0.15;100.00
12624;BME280;6377;42.836;23.998;2023-02-17T01:07:49;96498.63;;;0.05;100.00
12624;BME280;6377;42.836;23.998;2023-02-17T01:10:19;96473.03;;;-0.15;100.00
12624;BME280;6377;42.836;23.998;2023-02-17T01:13:20;96492.41;;;-0.07;100.00
12624;BME280;6377;42.836;23.998;2023-02-17T01:15:52;96503.38;;;-0.02;100.00
12624;BME280;6377;42.836;23.998;2023-02-17T01:18:21;96451.97;;;-0.39;100.00
12624;BME280;6377;42.836;23.998;2023-02-17T01:20:50;96407.50;;;-0.63;100.00
12624;BME280;6377;42.836;23.998;2023-02-17T01:23:18;96444.88;;;-0.37;100.00
12624;BME280;6377;42.836;23.998;2023-02-17T01:25:47;96481.09;;;-0.20;100.00
12624;BME280;6377;42.836;23.998;2023-02-17T01:28:17;96440.72;;;-0.68;100.00
12624;BME280;6377;42.836;23.998;2023-02-17T01:30:49;96483.50;;;-0.17;100.00
12624;BME280;6377;42.836;23.998;2023-02-17T01:33:21;96486.38;;;-0.07;100.00
12624;BME280;6377;42.836;23.998;2023-02-17T01:35:55;96435.88;;;-0.31;100.00
12624;BME280;6377;42.836;23.998;2023-02-17T01:38:28;96483.13;;;-0.11;100.00
12624;BME280;6377;42.836;23.998;2023-02-17T01:40:56;96412.22;;;-0.55;100.00
12624;BME280;6377;42.836;23.998;2023-02-17T01:43:23;96509.47;;;-0.03;100.00
12624;BME280;6377;42.836;23.998;2023-02-17T01:45:55;96486.66;;;0.03;100.00
12624;BME280;6377;42.836;23.998;2023-02-17T01:48:25;96418.63;;;-0.46;100.00
12624;BME280;6377;42.836;23.998;2023-02-17T01:50:58;96484.88;;;0.03;100.00
12624;BME280;6377;42.836;23.998;2023-02-17T01:53:32;96436.00;;;-0.33;100.00
12624;BME280;6377;42.836;23.998;2023-02-17T01:56:02;96450.00;;;-0.21;100.00
12624;BME280;6377;42.836;23.998;2023-02-17T01:58:31;96405.72;;;-0.34;100.00
12624;BME280;6377;42.836;23.998;2023-02-17T02:01:03;96411.28;;;-0.40;100.00
12624;BME280;6377;42.836;23.998;2023-02-17T02:03:45;96473.47;;;0.06;100.00
12624;BME280;6377;42.836;23.998;2023-02-17T02:06:23;96451.84;;;-0.09;100.00
12624;BME280;6377;42.836;23.998;2023-02-17T02:08:55;96262.94;;;-1.19;100.00
12624;BME280;6377;42.836;23.998;2023-02-17T02:11:25;96387.06;;;-0.40;100.00
12624;BME280;6377;42.836;23.998;2023-02-17T02:13:55;96433.94;;;-0.28;100.00
12624;BME280;6377;42.836;23.998;2023-02-17T02:16:27;96465.84;;;0.03;100.00
12624;BME280;6377;42.836;23.998;2023-02-17T02:19:02;96423.19;;;-0.36;100.00
12624;BME280;6377;42.836;23.998;2023-02-17T02:22:03;96443.47;;;-0.14;100.00
12624;BME280;6377;42.836;23.998;2023-02-17T02:24:50;96450.44;;;-0.15;100.00
12624;BME280;6377;42.836;23.998;2023-02-17T02:27:47;96460.91;;;-0.02;100.00
12624;BME280;6377;42.836;23.998;2023-02-17T02:30:32;96455.09;;;-0.20;100.00
12624;BME280;6377;42.836;23.998;2023-02-17T02:33:08;96455.19;;;-0.21;100.00
12624;BME280;6377;42.836;23.998;2023-02-17T02:35:44;96453.44;;;-0.21;100.00
12624;BME280;6377;42.836;23.998;2023-02-17T02:38:18;96459.25;;;-0.17;100.00
12624;BME280;6377;42.836;23.998;2023-02-17T02:40:54;96459.25;;;-0.17;100.00
12624;BME280;6377;42.836;23.998;2023-02-17T02:43:24;96411.19;;;-0.52;100.00
12624;BME280;6377;42.836;23.998;2023-02-17T02:45:51;96459.81;;;-0.26;100.00
12624;BME280;6377;42.836;23.998;2023-02-17T02:48:19;96462.81;;;-0.18;100.00
12624;BME280;6377;42.836;23.998;2023-02-17T02:57:08;96355.34;;;-0.88;100.00
12624;BME280;6377;42.836;23.998;2023-02-17T02:59:48;96453.50;;;-0.22;100.00
12624;BME280;6377;42.836;23.998;2023-02-17T03:02:26;96452.59;;;-0.21;100.00
12624;BME280;6377;42.836;23.998;2023-02-17T03:05:01;96447.47;;;-0.23;100.00
12624;BME280;6377;42.836;23.998;2023-02-17T03:07:33;96438.41;;;-0.30;100.00
12624;BME280;6377;42.836;23.998;2023-02-17T03:10:02;96459.00;;;-0.13;100.00
12624;BME280;6377;42.836;23.998;2023-02-17T03:12:30;96465.66;;;-0.09;100.00
12624;BME280;6377;42.836;23.998;2023-02-17T03:15:02;96464.94;;;-0.11;100.00
12624;BME280;6377;42.836;23.998;2023-02-17T03:17:31;96413.34;;;-0.59;100.00
12624;BME280;6377;42.836;23.998;2023-02-17T03:20:00;96457.69;;;-0.20;100.00
12624;BME280;6377;42.836;23.998;2023-02-17T03:22:31;96444.69;;;-0.34;100.00
12624;BME280;6377;42.836;23.998;2023-02-17T03:24:59;96467.72;;;-0.28;100.00
12624;BME280;6377;42.836;23.998;2023-02-17T03:27:27;96466.63;;;-0.24;100.00
12624;BME280;6377;42.836;23.998;2023-02-17T03:29:54;96457.97;;;-0.24;100.00
12624;BME280;6377;42.836;23.998;2023-02-17T03:32:21;96456.22;;;-0.24;100.00
12624;BME280;6377;42.836;23.998;2023-02-17T03:34:48;96452.22;;;-0.29;100.00
12624;BME280;6377;42.836;23.998;2023-02-17T03:37:17;96465.41;;;-0.18;100.00
12624;BME280;6377;42.836;23.998;2023-02-17T03:39:44;96463.44;;;-0.15;100.00
12624;BME280;6377;42.836;23.998;2023-02-17T03:42:12;96469.47;;;-0.14;100.00
12624;BME280;6377;42.836;23.998;2023-02-17T03:44:39;96473.84;;;-0.15;100.00
12624;BME280;6377;42.836;23.998;2023-02-17T03:47:06;96412.22;;;-0.55;100.00
12624;BME280;6377;42.836;23.998;2023-02-17T03:49:33;96471.63;;;-0.21;100.00
12624;BME280;6377;42.836;23.998;2023-02-17T03:52:00;96463.63;;;-0.32;100.00
12624;BME280;6377;42.836;23.998;2023-02-17T03:54:29;96456.69;;;-0.45;100.00
12624;BME280;6377;42.836;23.998;2023-02-17T03:56:56;96442.28;;;-0.51;100.00
12624;BME280;6377;42.836;23.998;2023-02-17T03:59:25;96459.56;;;-0.50;100.00
12624;BME280;6377;42.836;23.998;2023-02-17T04:01:53;96453.53;;;-0.36;100.00
12624;BME280;6377;42.836;23.998;2023-02-17T04:04:20;96455.03;;;-0.32;100.00
12624;BME280;6377;42.836;23.998;2023-02-17T04:06:47;96458.53;;;-0.33;100.00
12624;BME280;6377;42.836;23.998;2023-02-17T04:09:14;96462.72;;;-0.31;100.00
12624;BME280;6377;42.836;23.998;2023-02-17T04:11:43;96432.44;;;-0.46;100.00
12624;BME280;6377;42.836;23.998;2023-02-17T04:14:10;96444.41;;;-0.58;100.00
12624;BME280;6377;42.836;23.998;2023-02-17T04:16:38;96456.97;;;-0.36;100.00
12624;BME280;6377;42.836;23.998;2023-02-17T04:19:05;96435.06;;;-0.46;100.00
12624;BME280;6377;42.836;23.998;2023-02-17T04:21:33;96462.41;;;-0.26;100.00
12624;BME280;6377;42.836;23.998;2023-02-17T04:24:01;96452.78;;;-0.38;100.00
12624;BME280;6377;42.836;23.998;2023-02-17T04:26:29;96455.00;;;-0.46;100.00
12624;BME280;6377;42.836;23.998;2023-02-17T04:28:58;96422.06;;;-0.60;100.00
12624;BME280;6377;42.836;23.998;2023-02-17T04:31:25;96455.28;;;-0.37;100.00
12624;BME280;6377;42.836;23.998;2023-02-17T04:33:52;96449.06;;;-0.34;100.00
12624;BME280;6377;42.836;23.998;2023-02-17T04:36:19;96431.78;;;-0.49;100.00
12624;BME280;6377;42.836;23.998;2023-02-17T04:38:46;96463.75;;;-0.33;100.00
12624;BME280;6377;42.836;23.998;2023-02-17T04:41:14;96467.25;;;-0.34;100.00
12624;BME280;6377;42.836;23.998;2023-02-17T04:43:41;96382.63;;;-0.81;100.00
12624;BME280;6377;42.836;23.998;2023-02-17T04:46:09;96462.25;;;-0.37;100.00
12624;BME280;6377;42.836;23.998;2023-02-17T04:48:37;96393.31;;;-0.71;100.00
12624;BME280;6377;42.836;23.998;2023-02-17T04:51:04;96474.84;;;-0.17;100.00
12624;BME280;6377;42.836;23.998;2023-02-17T04:53:32;96440.91;;;-0.42;100.00
12624;BME280;6377;42.836;23.998;2023-02-17T04:55:59;96463.84;;;-0.21;100.00
12624;BME280;6377;42.836;23.998;2023-02-17T04:58:26;96468.00;;;-0.18;100.00
12624;BME280;6377;42.836;23.998;2023-02-17T05:00:53;96475.63;;;-0.15;100.00
12624;BME280;6377;42.836;23.998;2023-02-17T05:03:22;96479.31;;;-0.19;100.00
12624;BME280;6377;42.836;23.998;2023-02-17T05:05:49;96477.94;;;-0.25;100.00
12624;BME280;6377;42.836;23.998;2023-02-17T05:08:16;96478.28;;;-0.17;100.00
12624;BME280;6377;42.836;23.998;2023-02-17T05:10:43;96486.09;;;-0.17;100.00
12624;BME280;6377;42.836;23.998;2023-02-17T05:13:10;96492.97;;;-0.16;100.00
12624;BME280;6377;42.836;23.998;2023-02-17T05:15:37;96490.19;;;-0.13;100.00
12624;BME280;6377;42.836;23.998;2023-02-17T05:18:05;96496.13;;;-0.11;100.00
12624;BME280;6377;42.836;23.998;2023-02-17T05:20:33;96494.00;;;-0.32;100.00
12624;BME280;6377;42.836;23.998;2023-02-17T05:23:00;96497.81;;;-0.10;100.00
12624;BME280;6377;42.836;23.998;2023-02-17T05:25:28;96484.53;;;-0.19;100.00
12624;BME280;6377;42.836;23.998;2023-02-17T05:27:55;96504.13;;;-0.14;100.00
12624;BME280;6377;42.836;23.998;2023-02-17T05:30:23;96507.56;;;-0.13;100.00
12624;BME280;6377;42.836;23.998;2023-02-17T05:32:50;96514.88;;;-0.20;100.00
12624;BME280;6377;42.836;23.998;2023-02-17T05:35:17;96512.81;;;-0.15;100.00
12624;BME280;6377;42.836;23.998;2023-02-17T05:37:46;96376.69;;;-0.97;100.00
12624;BME280;6377;42.836;23.998;2023-02-17T05:40:13;96521.09;;;-0.08;100.00
12624;BME280;6377;42.836;23.998;2023-02-17T05:42:40;96492.97;;;-0.30;100.00
12624;BME280;6377;42.836;23.998;2023-02-17T05:45:07;96425.09;;;-0.82;100.00
12624;BME280;6377;42.836;23.998;2023-02-17T05:47:35;96518.97;;;-0.30;100.00
12624;BME280;6377;42.836;23.998;2023-02-17T05:50:02;96566.97;;;-0.21;100.00
12624;BME280;6377;42.836;23.998;2023-02-17T05:52:30;96546.63;;;-0.15;100.00
12624;BME280;6377;42.836;23.998;2023-02-17T05:54:59;96559.63;;;-0.15;100.00
12624;BME280;6377;42.836;23.998;2023-02-17T05:57:27;96494.44;;;-0.40;100.00
12624;BME280;6377;42.836;23.998;2023-02-17T05:59:55;96543.59;;;-0.21;100.00
12624;BME280;6377;42.836;23.998;2023-02-17T06:02:22;96546.72;;;-0.16;100.00
12624;BME280;6377;42.836;23.998;2023-02-17T06:04:49;96521.03;;;-0.21;100.00
12624;BME280;6377;42.836;23.998;2023-02-17T06:07:17;96496.88;;;-0.37;100.00
12624;BME280;6377;42.836;23.998;2023-02-17T06:09:44;96527.63;;;-0.15;100.00
12624;BME280;6377;42.836;23.998;2023-02-17T06:12:13;96455.00;;;-0.61;100.00
12624;BME280;6377;42.836;23.998;2023-02-17T06:14:40;96548.13;;;0.04;100.00
12624;BME280;6377;42.836;23.998;2023-02-17T06:17:07;96525.56;;;0.04;100.00
12624;BME280;6377;42.836;23.998;2023-02-17T06:19:34;96495.09;;;-0.22;100.00
12624;BME280;6377;42.836;23.998;2023-02-17T06:22:01;96556.50;;;0.23;100.00
12624;BME280;6377;42.836;23.998;2023-02-17T06:24:29;96553.88;;;0.23;100.00
12624;BME280;6377;42.836;23.998;2023-02-17T06:26:56;96559.63;;;0.28;100.00
12624;BME280;6377;42.836;23.998;2023-02-17T06:29:25;96560.84;;;0.36;100.00
12624;BME280;6377;42.836;23.998;2023-02-17T06:31:52;96564.16;;;0.38;100.00
12624;BME280;6377;42.836;23.998;2023-02-17T06:34:19;96554.59;;;0.39;100.00
12624;BME280;6377;42.836;23.998;2023-02-17T06:36:47;96570.69;;;0.45;100.00
12624;BME280;6377;42.836;23.998;2023-02-17T06:39:14;96440.59;;;-0.38;100.00
12624;BME280;6377;42.836;23.998;2023-02-17T06:41:41;96606.81;;;0.50;100.00
12624;BME280;6377;42.836;23.998;2023-02-17T06:44:08;96580.03;;;0.62;100.00
12624;BME280;6377;42.836;23.998;2023-02-17T06:46:37;96581.56;;;0.38;100.00
12624;BME280;6377;42.836;23.998;2023-02-17T06:49:04;96529.47;;;0.11;100.00
12624;BME280;6377;42.836;23.998;2023-02-17T06:51:31;96586.09;;;0.48;100.00
12624;BME280;6377;42.836;23.998;2023-02-17T06:53:58;96572.44;;;0.45;100.00
12624;BME280;6377;42.836;23.998;2023-02-17T06:56:26;96578.91;;;0.66;100.00
12624;BME280;6377;42.836;23.998;2023-02-17T06:58:53;96578.88;;;0.80;100.00
12624;BME280;6377;42.836;23.998;2023-02-17T07:01:22;96520.34;;;0.59;100.00
12624;BME280;6377;42.836;23.998;2023-02-17T07:03:52;96577.66;;;1.12;100.00
12624;BME280;6377;42.836;23.998;2023-02-17T07:06:20;96569.97;;;1.11;100.00
12624;BME280;6377;42.836;23.998;2023-02-17T07:08:48;96570.41;;;1.30;100.00
12624;BME280;6377;42.836;23.998;2023-02-17T07:11:15;96574.50;;;1.34;100.00
12624;BME280;6377;42.836;23.998;2023-02-17T07:13:43;96540.31;;;1.26;100.00
12624;BME280;6377;42.836;23.998;2023-02-17T07:16:12;96567.97;;;1.54;100.00
12624;BME280;6377;42.836;23.998;2023-02-17T07:18:40;96573.72;;;1.59;100.00
12624;BME280;6377;42.836;23.998;2023-02-17T07:21:09;96546.06;;;1.56;100.00
12624;BME280;6377;42.836;23.998;2023-02-17T07:23:36;96574.25;;;1.77;100.00
12624;BME280;6377;42.836;23.998;2023-02-17T07:26:06;96581.81;;;1.94;100.00
12624;BME280;6377;42.836;23.998;2023-02-17T07:28:34;96582.09;;;2.14;100.00
12624;BME280;6377;42.836;23.998;2023-02-17T07:31:04;96467.44;;;1.62;100.00
12624;BME280;6377;42.836;23.998;2023-02-17T07:33:33;96577.59;;;2.42;100.00
12624;BME280;6377;42.836;23.998;2023-02-17T07:36:04;96580.41;;;2.39;100.00
12624;BME280;6377;42.836;23.998;2023-02-17T07:38:33;96464.00;;;1.87;100.00
12624;BME280;6377;42.836;23.998;2023-02-17T07:41:04;96574.75;;;2.57;100.00
12624;BME280;6377;42.836;23.998;2023-02-17T07:43:31;96411.84;;;1.87;100.00
12624;BME280;6377;42.836;23.998;2023-02-17T07:45:59;96581.41;;;2.98;100.00
12624;BME280;6377;42.836;23.998;2023-02-17T07:48:26;96565.44;;;3.02;100.00
12624;BME280;6377;42.836;23.998;2023-02-17T07:50:55;96515.13;;;2.88;100.00
12624;BME280;6377;42.836;23.998;2023-02-17T07:53:23;96559.50;;;3.35;100.00
12624;BME280;6377;42.836;23.998;2023-02-17T07:55:51;96482.78;;;3.12;100.00
12624;BME280;6377;42.836;23.998;2023-02-17T07:58:19;96465.38;;;3.35;100.00
12624;BME280;6377;42.836;23.998;2023-02-17T08:00:46;96457.91;;;3.42;100.00
12624;BME280;6377;42.836;23.998;2023-02-17T08:03:13;96580.69;;;4.35;100.00
12624;BME280;6377;42.836;23.998;2023-02-17T08:05:40;96589.63;;;4.55;100.00
12624;BME280;6377;42.836;23.998;2023-02-17T08:08:08;96580.19;;;4.74;100.00
12624;BME280;6377;42.836;23.998;2023-02-17T08:10:54;96573.75;;;4.89;100.00
12624;BME280;6377;42.836;23.998;2023-02-17T08:13:38;96587.19;;;5.07;100.00
12624;BME280;6377;42.836;23.998;2023-02-17T08:16:05;96581.91;;;5.18;100.00
12624;BME280;6377;42.836;23.998;2023-02-17T08:18:33;96560.59;;;5.12;100.00
12624;BME280;6377;42.836;23.998;2023-02-17T08:21:00;96572.22;;;5.30;100.00
12624;BME280;6377;42.836;23.998;2023-02-17T08:23:27;96545.03;;;5.31;100.00
12624;BME280;6377;42.836;23.998;2023-02-17T08:25:57;96577.50;;;5.82;100.00
12624;BME280;6377;42.836;23.998;2023-02-17T08:28:25;96569.97;;;5.89;100.00
12624;BME280;6377;42.836;23.998;2023-02-17T08:30:52;96563.13;;;5.97;100.00
12624;BME280;6377;42.836;23.998;2023-02-17T08:33:19;96572.97;;;6.05;100.00
12624;BME280;6377;42.836;23.998;2023-02-17T08:35:46;96547.44;;;6.37;100.00
12624;BME280;6377;42.836;23.998;2023-02-17T08:38:14;96544.28;;;6.43;100.00
12624;BME280;6377;42.836;23.998;2023-02-17T08:40:41;96534.09;;;6.50;100.00
12624;BME280;6377;42.836;23.998;2023-02-17T08:43:10;96545.69;;;6.78;96.42
12624;BME280;6377;42.836;23.998;2023-02-17T08:45:37;96561.22;;;7.00;97.99
12624;BME280;6377;42.836;23.998;2023-02-17T08:48:05;96532.16;;;7.11;87.18
12624;BME280;6377;42.836;23.998;2023-02-17T08:50:32;96537.06;;;7.25;88.39
12624;BME280;6377;42.836;23.998;2023-02-17T08:53:00;96526.78;;;7.31;84.56
12624;BME280;6377;42.836;23.998;2023-02-17T08:55:27;96541.34;;;7.74;85.94
12624;BME280;6377;42.836;23.998;2023-02-17T08:57:54;96581.63;;;8.22;83.63
12624;BME280;6377;42.836;23.998;2023-02-17T09:00:23;96553.28;;;8.53;69.22
12624;BME280;6377;42.836;23.998;2023-02-17T09:02:50;96550.13;;;8.77;73.86
12624;BME280;6377;42.836;23.998;2023-02-17T09:05:18;96532.91;;;8.82;73.60
12624;BME280;6377;42.836;23.998;2023-02-17T09:07:45;96530.47;;;9.16;73.88
12624;BME280;6377;42.836;23.998;2023-02-17T09:10:12;96480.50;;;9.32;59.05
12624;BME280;6377;42.836;23.998;2023-02-17T09:12:40;96527.84;;;9.69;63.45
12624;BME280;6377;42.836;23.998;2023-02-17T09:15:08;96497.00;;;9.70;63.48
12624;BME280;6377;42.836;23.998;2023-02-17T09:17:39;96514.34;;;10.33;68.06
12624;BME280;6377;42.836;23.998;2023-02-17T09:20:07;96506.06;;;10.62;68.21
12624;BME280;6377;42.836;23.998;2023-02-17T09:22:35;96500.38;;;10.91;64.40
12624;BME280;6377;42.836;23.998;2023-02-17T09:25:03;96494.34;;;11.31;54.87
12624;BME280;6377;42.836;23.998;2023-02-17T09:27:31;96510.94;;;11.41;55.62
12624;BME280;6377;42.836;23.998;2023-02-17T09:29:58;96521.28;;;11.84;54.20
12624;BME280;6377;42.836;23.998;2023-02-17T09:32:25;96519.97;;;12.20;51.51
12624;BME280;6377;42.836;23.998;2023-02-17T09:34:54;96506.59;;;12.61;52.13
12624;BME280;6377;42.836;23.998;2023-02-17T09:37:21;96502.50;;;12.97;55.24
12624;BME280;6377;42.836;23.998;2023-02-17T09:39:49;96507.63;;;13.37;46.44
12624;BME280;6377;42.836;23.998;2023-02-17T09:42:18;96505.66;;;13.31;41.70
12624;BME280;6377;42.836;23.998;2023-02-17T09:44:48;96514.63;;;13.30;47.90
12624;BME280;6377;42.836;23.998;2023-02-17T09:47:20;96502.16;;;13.31;44.16
12624;BME280;6377;42.836;23.998;2023-02-17T09:49:51;96521.34;;;13.49;41.08
12624;BME280;6377;42.836;23.998;2023-02-17T09:52:27;96539.66;;;13.67;37.39
12624;BME280;6377;42.836;23.998;2023-02-17T09:55:02;96533.28;;;13.76;36.84
12624;BME280;6377;42.836;23.998;2023-02-17T09:57:34;96547.06;;;14.02;35.22
12624;BME280;6377;42.836;23.998;2023-02-17T10:00:09;96522.09;;;13.80;31.87
12624;BME280;6377;42.836;23.998;2023-02-17T10:02:43;96533.47;;;13.97;33.00
12624;BME280;6377;42.836;23.998;2023-02-17T10:05:17;96560.47;;;14.09;32.62
12624;BME280;6377;42.836;23.998;2023-02-17T10:07:49;96575.78;;;14.07;31.62
12624;BME280;6377;42.836;23.998;2023-02-17T10:10:20;96535.03;;;14.29;32.04
12624;BME280;6377;42.836;23.998;2023-02-17T10:12:50;96479.91;;;14.00;31.04
12624;BME280;6377;42.836;23.998;2023-02-17T10:15:22;96502.22;;;14.36;30.89
12624;BME280;6377;42.836;23.998;2023-02-17T10:17:55;96484.41;;;14.37;30.84
12624;BME280;6377;42.836;23.998;2023-02-17T10:20:25;96427.50;;;13.86;30.26
12624;BME280;6377;42.836;23.998;2023-02-17T10:22:59;96478.94;;;14.53;31.50
12624;BME280;6377;42.836;23.998;2023-02-17T10:28:48;96494.41;;;15.08;33.39
12624;BME280;6377;42.836;23.998;2023-02-17T10:31:22;96515.44;;;15.32;30.49
12624;BME280;6377;42.836;23.998;2023-02-17T10:36:34;96513.16;;;15.86;29.98
12624;BME280;6377;42.836;23.998;2023-02-17T10:39:11;96506.13;;;15.79;29.89
12624;BME280;6377;42.836;23.998;2023-02-17T10:41:40;96500.50;;;16.16;29.91
12624;BME280;6377;42.836;23.998;2023-02-17T10:44:13;96488.91;;;16.30;30.44
12624;BME280;6377;42.836;23.998;2023-02-17T10:46:42;96495.84;;;16.52;31.61
12624;BME280;6377;42.836;23.998;2023-02-17T10:49:17;96475.91;;;16.83;30.18
12624;BME280;6377;42.836;23.998;2023-02-17T10:51:47;96484.50;;;16.71;30.58
12624;BME280;6377;42.836;23.998;2023-02-17T10:54:23;96481.63;;;16.73;30.34
12624;BME280;6377;42.836;23.998;2023-02-17T10:56:56;96431.22;;;16.36;28.52
12624;BME280;6377;42.836;23.998;2023-02-17T10:59:29;96402.56;;;16.16;28.35
12624;BME280;6377;42.836;23.998;2023-02-17T11:02:18;96444.84;;;16.47;27.94
12624;BME280;6377;42.836;23.998;2023-02-17T11:04:47;96472.63;;;16.80;28.11
12624;BME280;6377;42.836;23.998;2023-02-17T11:07:16;96463.00;;;16.86;28.48
12624;BME280;6377;42.836;23.998;2023-02-17T11:09:47;96453.56;;;16.90;28.46
12624;BME280;6377;42.836;23.998;2023-02-17T11:12:20;96430.06;;;15.89;28.02
12624;BME280;6377;42.836;23.998;2023-02-17T11:14:51;96420.94;;;15.77;28.56
12624;BME280;6377;42.836;23.998;2023-02-17T11:17:25;96445.44;;;16.15;28.97
12624;BME280;6377;42.836;23.998;2023-02-17T11:19:56;96446.97;;;16.52;28.95
12624;BME280;6377;42.836;23.998;2023-02-17T11:22:33;96450.53;;;17.06;28.25
12624;BME280;6377;42.836;23.998;2023-02-17T11:25:06;96410.28;;;17.21;28.42
12624;BME280;6377;42.836;23.998;2023-02-17T11:27:34;96381.53;;;17.23;29.11
12624;BME280;6377;42.836;23.998;2023-02-17T11:30:07;96374.47;;;17.09;29.64
12624;BME280;6377;42.836;23.998;2023-02-17T11:32:35;96387.78;;;16.89;28.71
12624;BME280;6377;42.836;23.998;2023-02-17T11:35:02;96439.53;;;17.35;29.41
12624;BME280;6377;42.836;23.998;2023-02-17T11:37:36;96431.44;;;17.89;29.00
12624;BME280;6377;42.836;23.998;2023-02-17T11:40:22;96435.97;;;18.15;27.13
12624;BME280;6377;42.836;23.998;2023-02-17T11:42:55;96366.34;;;17.43;26.57
12624;BME280;6377;42.836;23.998;2023-02-17T11:45:25;96424.00;;;18.18;28.37
12624;BME280;6377;42.836;23.998;2023-02-17T11:48:04;96402.16;;;18.27;27.32
12624;BME280;6377;42.836;23.998;2023-02-17T11:50:40;96360.19;;;18.02;26.32
12624;BME280;6377;42.836;23.998;2023-02-17T11:53:21;96400.94;;;17.97;26.55
12624;BME280;6377;42.836;23.998;2023-02-17T11:56:00;96401.09;;;17.43;26.81
12624;BME280;6377;42.836;23.998;2023-02-17T11:58:43;96398.50;;;17.69;26.29
12624;BME280;6377;42.836;23.998;2023-02-17T12:01:32;96391.03;;;17.45;26.50
12624;BME280;6377;42.836;23.998;2023-02-17T12:07:38;96411.56;;;17.38;28.48
12624;BME280;6377;42.836;23.998;2023-02-17T12:10:17;96382.00;;;16.86;28.59
12624;BME280;6377;42.836;23.998;2023-02-17T12:12:57;96380.22;;;17.06;29.09
12624;BME280;6377;42.836;23.998;2023-02-17T12:15:52;96408.19;;;17.03;28.79
12624;BME280;6377;42.836;23.998;2023-02-17T12:18:32;96369.22;;;16.74;29.97
12624;BME280;6377;42.836;23.998;2023-02-17T12:21:08;96359.25;;;17.03;29.12
12624;BME280;6377;42.836;23.998;2023-02-17T12:23:51;96383.38;;;17.29;27.71
12624;BME280;6377;42.836;23.998;2023-02-17T12:26:28;96389.19;;;17.59;28.87
12624;BME280;6377;42.836;23.998;2023-02-17T12:29:14;96356.91;;;17.60;28.70
12624;BME280;6377;42.836;23.998;2023-02-17T12:32:10;96371.94;;;17.68;28.20
12624;BME280;6377;42.836;23.998;2023-02-17T12:34:43;96371.31;;;17.66;27.57
12624;BME280;6377;42.836;23.998;2023-02-17T12:37:17;96348.56;;;17.09;27.46
12624;BME280;6377;42.836;23.998;2023-02-17T12:39:47;96376.41;;;17.34;27.83
12624;BME280;6377;42.836;23.998;2023-02-17T12:42:20;96381.28;;;17.18;28.13
12624;BME280;6377;42.836;23.998;2023-02-17T12:44:54;96353.63;;;16.78;29.65
12624;BME280;6377;42.836;23.998;2023-02-17T12:47:27;96355.78;;;16.55;28.23
12624;BME280;6377;42.836;23.998;2023-02-17T12:50:00;96323.78;;;16.68;30.16
12624;BME280;6377;42.836;23.998;2023-02-17T12:52:32;96351.47;;;16.19;28.87
12624;BME280;6377;42.836;23.998;2023-02-17T12:55:10;96254.00;;;15.55;30.11
12624;BME280;6377;42.836;23.998;2023-02-17T12:57:43;96291.88;;;15.50;33.01
12624;BME280;6377;42.836;23.998;2023-02-17T13:00:20;96343.53;;;15.70;32.93
12624;BME280;6377;42.836;23.998;2023-02-17T13:02:47;96303.19;;;15.31;32.04
12624;BME280;6377;42.836;23.998;2023-02-17T13:05:21;96345.88;;;15.52;32.76
12624;BME280;6377;42.836;23.998;2023-02-17T13:07:55;96333.47;;;15.02;29.60
12624;BME280;6377;42.836;23.998;2023-02-17T13:10:31;96363.56;;;15.03;29.74
12624;BME280;6377;42.836;23.998;2023-02-17T13:13:02;96322.38;;;14.63;30.13
12624;BME280;6377;42.836;23.998;2023-02-17T13:15:36;96363.59;;;14.67;30.19
12624;BME280;6377;42.836;23.998;2023-02-17T13:18:06;96333.53;;;14.37;30.41
12624;BME280;6377;42.836;23.998;2023-02-17T13:20:43;96319.59;;;14.50;33.01
12624;BME280;6377;42.836;23.998;2023-02-17T13:23:35;96340.41;;;14.61;30.76
12624;BME280;6377;42.836;23.998;2023-02-17T13:26:26;96357.53;;;14.73;32.32
12624;BME280;6377;42.836;23.998;2023-02-17T13:29:07;96365.06;;;14.70;32.59
12624;BME280;6377;42.836;23.998;2023-02-17T13:31:46;96379.03;;;14.57;34.17